Time;durP1;ratioP1;P1;durP2;ratioP2;P2;SDS_P1;SDS_P2;PMS_P1;PMS_P2;Temp;Humidity;BMP_temperature;BMP_pressure;BME280_temperature;BME280_humidity;BME280_pressure;Samples;Min_cycle;Max_cycle;Signal;HPM_P1;HPM_P2
2023/01/14 07:30:43;;;;;;;;;;;;;;;5.81;74.18;98345.22;5651587;23;19932;-66
2023/01/14 07:33:08;;;;;;;;;;;;;;;5.79;74.45;98347.09;4876634;29;20281;-62
2023/01/14 07:35:33;;;;;;;;;;;;;;;5.75;74.00;98345.53;4881177;29;19923;-63
2023/01/14 07:37:59;;;;;;;;;;;;;;;5.66;73.76;98343.34;4878665;29;19932;-62
2023/01/14 07:40:24;;;;;;;;;;;;;;;5.61;72.83;98333.19;4872922;29;19927;-63
2023/01/14 07:42:53;;;;;;;;;;;;;;;5.59;73.01;98329.78;4848155;29;19920;-63
2023/01/14 07:45:18;;;;;;;;;;;;;;;5.59;74.24;98334.16;4856233;29;20007;-64
2023/01/14 07:47:44;;;;;;;;;;;;;;;5.60;74.52;98333.22;4860140;29;20029;-63
2023/01/14 07:50:09;;;;;;;;;;;;;;;5.52;74.91;98335.34;4860327;29;19959;-64
2023/01/14 07:52:34;;;;;;;;;;;;;;;5.56;75.17;98334.28;4859314;29;19977;-65
2023/01/14 07:55:00;;;;;;;;;;;;;;;5.62;76.45;98331.41;4858793;29;20539;-63
2023/01/14 07:57:25;;;;;;;;;;;;;;;5.62;74.71;98323.59;4857396;29;20419;-64
2023/01/14 07:59:50;;;;;;;;;;;;;;;5.64;74.64;98324.34;4859200;29;20377;-65
2023/01/14 08:02:15;;;;;;;;;;;;;;;5.64;74.11;98320.03;4859842;29;20323;-64
2023/01/14 08:04:40;;;;;;;;;;;;;;;5.61;72.33;98324.50;4858277;29;20300;-63
2023/01/14 08:07:06;;;;;;;;;;;;;;;5.63;72.72;98320.91;4860589;29;20316;-63
2023/01/14 08:09:31;;;;;;;;;;;;;;;5.66;73.21;98317.34;4857565;29;19920;-63
2023/01/14 08:11:56;;;;;;;;;;;;;;;5.70;72.76;98314.50;4860518;29;19920;-65
2023/01/14 08:14:22;;;;;;;;;;;;;;;5.66;72.62;98312.97;4861811;29;19916;-62
2023/01/14 08:16:47;;;;;;;;;;;;;;;5.72;73.82;98312.69;4861146;29;19920;-63
2023/01/14 08:19:12;;;;;;;;;;;;;;;5.75;72.87;98309.09;4853775;29;19924;-64
2023/01/14 08:21:38;;;;;;;;;;;;;;;5.82;72.28;98304.47;4859507;29;19931;-63
2023/01/14 08:24:03;;;;;;;;;;;;;;;5.90;74.59;98294.50;4857874;29;19921;-64
2023/01/14 08:26:28;;;;;;;;;;;;;;;5.94;71.81;98291.69;4857624;29;19928;-63
2023/01/14 08:28:54;;;;;;;;;;;;;;;5.96;72.16;98277.78;4859900;29;19920;-63
2023/01/14 08:31:19;;;;;;;;;;;;;;;6.04;72.55;98270.44;4860424;29;19920;-65
2023/01/14 08:33:44;;;;;;;;;;;;;;;6.10;72.83;98277.94;4858341;29;19920;-64
2023/01/14 08:36:10;;;;;;;;;;;;;;;6.14;72.12;98269.06;4861620;29;19927;-63
2023/01/14 08:38:36;;;;;;;;;;;;;;;6.21;71.96;98269.59;4861251;29;19924;-64
2023/01/14 08:41:05;;;;;;;;;;;;;;;6.27;71.90;98264.94;4860334;29;19931;-64
2023/01/14 08:43:30;;;;;;;;;;;;;;;6.35;72.12;98267.97;4854243;29;19980;-63
2023/01/14 08:45:55;;;;;;;;;;;;;;;6.45;72.79;98264.94;4854003;29;20371;-64
2023/01/14 08:48:20;;;;;;;;;;;;;;;6.52;71.55;98263.69;4858365;29;20364;-63
2023/01/14 08:50:46;;;;;;;;;;;;;;;6.59;70.93;98265.06;4859817;29;20401;-63
2023/01/14 08:53:11;;;;;;;;;;;;;;;6.59;70.33;98259.84;4852376;29;20030;-63
2023/01/14 08:55:36;;;;;;;;;;;;;;;6.70;69.33;98257.53;4860623;29;19967;-63
2023/01/14 08:58:04;;;;;;;;;;;;;;;6.78;69.50;98260.59;4852634;29;19957;-63
2023/01/14 09:00:29;;;;;;;;;;;;;;;6.90;69.92;98259.94;4860072;29;19924;-63
2023/01/14 09:02:55;;;;;;;;;;;;;;;7.00;69.74;98260.28;4861170;29;20047;-64
2023/01/14 09:05:20;;;;;;;;;;;;;;;7.09;70.52;98258.97;4861248;29;19999;-63
2023/01/14 09:18:41;;;;;;;;;;;;;;;7.22;69.30;98246.91;4860013;29;19930;-65
2023/01/14 09:21:06;;;;;;;;;;;;;;;7.22;69.16;98249.53;4859207;29;19999;-65
2023/01/14 09:23:31;;;;;;;;;;;;;;;7.22;67.76;98254.75;4860804;29;19920;-63
2023/01/14 09:25:57;;;;;;;;;;;;;;;7.13;67.91;98243.06;4853472;29;20011;-65
2023/01/14 09:28:22;;;;;;;;;;;;;;;7.18;69.91;98248.03;4860016;29;19951;-64
2023/01/14 09:30:47;;;;;;;;;;;;;;;7.22;68.42;98243.47;4860760;29;19966;-64
2023/01/14 09:33:12;;;;;;;;;;;;;;;7.24;68.93;98241.63;4860072;29;19955;-65
2023/01/14 09:35:38;;;;;;;;;;;;;;;7.19;68.68;98243.63;4859901;29;20333;-64
2023/01/14 09:38:03;;;;;;;;;;;;;;;7.29;69.46;98245.66;4857934;29;19924;-63
2023/01/14 09:40:28;;;;;;;;;;;;;;;7.41;68.70;98240.72;4859983;29;20377;-63
2023/01/14 09:42:53;;;;;;;;;;;;;;;7.53;69.67;98230.41;4859772;29;19936;-61
2023/01/14 09:45:25;;;;;;;;;;;;;;;7.64;68.38;98224.63;4859348;29;19916;-63
2023/01/14 09:47:50;;;;;;;;;;;;;;;7.75;67.64;98218.78;4850868;29;20701;-64
2023/01/14 09:50:16;;;;;;;;;;;;;;;7.82;67.67;98218.34;4860404;29;19968;-64
2023/01/14 09:52:43;;;;;;;;;;;;;;;7.87;67.36;98212.00;4857217;29;19935;-64
2023/01/14 09:55:21;;;;;;;;;;;;;;;7.91;66.97;98208.28;4860132;29;19999;-64
2023/01/14 09:57:52;;;;;;;;;;;;;;;7.96;66.46;98204.50;4837548;29;19935;-64
2023/01/14 10:00:29;;;;;;;;;;;;;;;8.01;66.72;98193.78;4856709;29;20042;-63
2023/01/14 10:03:03;;;;;;;;;;;;;;;7.99;65.95;98199.09;4858889;29;20016;-61
2023/01/14 10:05:28;;;;;;;;;;;;;;;8.02;66.64;98187.63;4859289;29;19924;-64
2023/01/14 10:07:55;;;;;;;;;;;;;;;8.01;66.08;98180.72;4857897;29;19920;-63
2023/01/14 10:10:22;;;;;;;;;;;;;;;7.99;66.92;98174.75;4856997;29;19968;-65
2023/01/14 10:12:48;;;;;;;;;;;;;;;7.98;65.93;98171.31;4856987;29;19927;-65
2023/01/14 10:15:19;;;;;;;;;;;;;;;7.95;66.09;98165.41;4854543;29;19916;-65
2023/01/14 10:17:45;;;;;;;;;;;;;;;7.90;66.81;98157.84;4862162;29;19920;-64
2023/01/14 10:20:22;;;;;;;;;;;;;;;7.94;66.76;98148.88;4851277;29;19927;-64
2023/01/14 10:22:52;;;;;;;;;;;;;;;7.96;67.18;98146.19;4858873;29;19916;-63
2023/01/14 10:25:18;;;;;;;;;;;;;;;8.00;66.46;98145.09;4858047;29;19968;-64
2023/01/14 10:27:44;;;;;;;;;;;;;;;8.03;66.79;98142.28;4858863;29;19965;-64
2023/01/14 10:30:15;;;;;;;;;;;;;;;7.99;66.88;98140.81;4852793;29;19944;-63
2023/01/14 10:32:40;;;;;;;;;;;;;;;7.98;67.50;98129.53;4861456;29;20035;-65
2023/01/14 10:35:05;;;;;;;;;;;;;;;8.01;66.97;98124.09;4854457;29;20004;-64
2023/01/14 10:37:30;;;;;;;;;;;;;;;8.03;67.30;98121.41;4855470;29;20007;-66
2023/01/14 10:39:56;;;;;;;;;;;;;;;8.05;66.92;98119.53;4842317;29;19932;-63
2023/01/14 10:42:25;;;;;;;;;;;;;;;8.09;67.28;98121.03;4859025;29;19920;-65
2023/01/14 10:44:50;;;;;;;;;;;;;;;8.09;67.13;98110.59;4849171;29;19920;-64
2023/01/14 10:47:16;;;;;;;;;;;;;;;8.15;66.65;98104.97;4858694;29;19946;-64
2023/01/14 10:49:47;;;;;;;;;;;;;;;8.24;66.59;98090.53;4852587;29;19995;-66
2023/01/14 10:52:21;;;;;;;;;;;;;;;8.28;66.72;98089.41;4858668;29;19916;-64
2023/01/14 10:55:13;;;;;;;;;;;;;;;8.41;66.38;98087.75;4856355;29;20003;-63
2023/01/14 10:57:48;;;;;;;;;;;;;;;8.56;67.16;98070.28;4840249;29;19924;-64
2023/01/14 11:00:35;;;;;;;;;;;;;;;8.71;66.68;98071.94;4823167;29;19916;-65
2023/01/14 11:03:01;;;;;;;;;;;;;;;8.81;66.34;98061.75;4822885;29;20019;-62
2023/01/14 11:05:27;;;;;;;;;;;;;;;8.88;65.56;98062.16;4825331;29;20043;-64
2023/01/14 11:07:53;;;;;;;;;;;;;;;8.96;65.91;98049.44;4827295;29;19917;-65
2023/01/14 11:10:19;;;;;;;;;;;;;;;9.03;65.63;98050.72;4826633;29;19927;-65
2023/01/14 11:12:44;;;;;;;;;;;;;;;9.01;65.27;98048.19;4827227;29;20297;-65
2023/01/14 11:15:28;;;;;;;;;;;;;;;9.01;65.92;98034.28;4831016;29;19965;-65
2023/01/14 11:17:54;;;;;;;;;;;;;;;9.05;65.74;98038.41;4842420;29;20373;-64
2023/01/14 11:20:21;;;;;;;;;;;;;;;8.96;65.59;98042.44;4826136;29;19920;-67
2023/01/14 11:22:54;;;;;;;;;;;;;;;8.84;65.54;98045.81;4826823;29;19924;-64
2023/01/14 11:25:22;;;;;;;;;;;;;;;8.78;65.90;98031.38;4822462;29;19980;-65
2023/01/14 11:27:47;;;;;;;;;;;;;;;8.58;67.16;98034.44;4826453;29;20008;-66
2023/01/14 11:30:19;;;;;;;;;;;;;;;8.52;67.11;98040.88;4825923;29;20019;-66
2023/01/14 11:32:48;;;;;;;;;;;;;;;8.52;67.60;98029.56;4811869;29;19923;-67
2023/01/14 11:35:17;;;;;;;;;;;;;;;8.55;67.60;98019.75;4853774;29;19931;-66
2023/01/14 11:37:44;;;;;;;;;;;;;;;8.51;68.36;98012.22;4861141;29;19920;-65
2023/01/14 11:40:20;;;;;;;;;;;;;;;8.55;68.33;98008.47;4855868;29;20092;-65
2023/01/14 11:42:46;;;;;;;;;;;;;;;8.62;68.07;98006.31;4846244;29;19925;-65
2023/01/14 11:45:11;;;;;;;;;;;;;;;8.65;67.75;98001.72;4859248;29;20012;-66
2023/01/14 11:47:46;;;;;;;;;;;;;;;8.70;67.33;97998.81;4854878;29;19952;-65
2023/01/14 11:50:21;;;;;;;;;;;;;;;8.72;67.31;97989.94;4860175;29;19944;-65
2023/01/14 11:52:57;;;;;;;;;;;;;;;8.75;67.83;97979.28;4861510;29;20466;-63
2023/01/14 11:55:22;;;;;;;;;;;;;;;8.71;67.31;97977.81;4854311;29;19920;-65
2023/01/14 11:57:47;;;;;;;;;;;;;;;8.73;67.75;97965.47;4853098;29;20281;-65
2023/01/14 12:00:12;;;;;;;;;;;;;;;8.78;67.54;97913.72;4861083;29;20312;-65
2023/01/14 12:02:44;;;;;;;;;;;;;;;8.87;67.64;97929.72;4859918;29;20300;-64
2023/01/14 12:05:14;;;;;;;;;;;;;;;8.93;67.51;97904.00;4861363;29;19916;-64
2023/01/14 12:07:44;;;;;;;;;;;;;;;9.00;67.85;97902.66;4855174;29;19945;-64
2023/01/14 12:10:17;;;;;;;;;;;;;;;9.06;67.46;97897.97;4842838;29;19927;-64
2023/01/14 12:19:10;;;;;;;;;;;;;;;9.15;66.79;97908.66;4843437;29;20315;-64
2023/01/14 12:22:01;;;;;;;;;;;;;;;9.13;66.45;97900.06;4861352;29;19924;-66
2023/01/14 12:24:29;;;;;;;;;;;;;;;9.16;66.46;97886.78;4844322;29;19928;-65
2023/01/14 12:26:54;;;;;;;;;;;;;;;9.16;66.45;97868.44;4845202;29;19938;-64
2023/01/14 12:29:21;;;;;;;;;;;;;;;9.17;66.43;97861.44;4854106;29;20441;-64
2023/01/14 12:31:52;;;;;;;;;;;;;;;9.11;66.51;97867.91;4845414;29;19927;-66
2023/01/14 12:34:18;;;;;;;;;;;;;;;9.14;66.52;97859.03;4860615;29;19920;-65
2023/01/14 12:36:46;;;;;;;;;;;;;;;9.13;66.58;97852.13;4861058;29;19943;-64
2023/01/14 12:47:47;;;;;;;;;;;;;;;9.39;66.12;97811.06;4854461;29;20288;-64
2023/01/14 12:50:15;;;;;;;;;;;;;;;9.42;66.05;97808.22;4858174;29;20002;-66
2023/01/14 12:52:45;;;;;;;;;;;;;;;9.47;65.92;97800.91;4860003;29;19976;-64
2023/01/14 12:55:17;;;;;;;;;;;;;;;9.51;65.95;97790.09;4856611;29;19924;-64
2023/01/14 12:57:42;;;;;;;;;;;;;;;9.58;65.87;97798.34;4865054;29;20051;-64
2023/01/14 13:00:09;;;;;;;;;;;;;;;9.64;65.11;97805.78;4860244;29;20007;-66
2023/01/14 13:02:35;;;;;;;;;;;;;;;9.63;65.35;97803.25;4854846;29;20304;-66
2023/01/14 13:05:04;;;;;;;;;;;;;;;9.73;65.19;97793.78;4851040;29;19924;-66
2023/01/14 13:07:31;;;;;;;;;;;;;;;9.83;64.86;97796.59;4841261;29;19920;-63
2023/01/14 13:09:57;;;;;;;;;;;;;;;9.86;64.51;97788.53;4854099;29;19966;-63
2023/01/14 13:12:22;;;;;;;;;;;;;;;9.93;64.60;97785.34;4854193;29;19920;-67
2023/01/14 13:14:51;;;;;;;;;;;;;;;10.00;64.15;97780.50;4872709;29;19927;-66
2023/01/14 13:17:17;;;;;;;;;;;;;;;10.04;63.38;97788.97;4859015;29;20441;-65
2023/01/14 13:19:52;;;;;;;;;;;;;;;10.07;63.33;97781.72;4859963;29;19920;-64
2023/01/14 13:22:36;;;;;;;;;;;;;;;10.08;62.78;97772.06;4858087;29;20027;-64
2023/01/14 13:25:03;;;;;;;;;;;;;;;10.05;62.94;97765.28;4857628;29;19920;-64
2023/01/14 13:27:33;;;;;;;;;;;;;;;10.01;63.07;97760.38;4858950;29;20428;-64
2023/01/14 13:30:17;;;;;;;;;;;;;;;9.99;62.59;97756.09;4853437;29;20027;-64
2023/01/14 13:32:51;;;;;;;;;;;;;;;9.88;62.71;97739.50;4859926;29;19928;-65
2023/01/14 13:35:17;;;;;;;;;;;;;;;9.80;63.10;97747.06;4857110;29;20384;-64
2023/01/14 13:37:42;;;;;;;;;;;;;;;9.56;63.30;97740.00;4859556;29;20004;-65
2023/01/14 13:40:14;;;;;;;;;;;;;;;9.58;63.84;97717.19;4860414;29;19920;-64
2023/01/14 13:42:39;;;;;;;;;;;;;;;9.61;64.00;97716.97;4858512;29;19978;-63
2023/01/14 13:45:05;;;;;;;;;;;;;;;9.58;64.00;97709.34;4858406;29;20362;-61
2023/01/14 13:47:31;;;;;;;;;;;;;;;9.67;66.00;97690.34;4852290;29;19920;-63
2023/01/14 13:49:58;;;;;;;;;;;;;;;9.69;65.06;97692.84;4852785;29;20667;-63
2023/01/14 13:52:24;;;;;;;;;;;;;;;9.66;64.41;97686.03;4843078;29;19926;-65
2023/01/14 13:54:52;;;;;;;;;;;;;;;9.65;64.35;97696.63;4850772;29;20407;-65
2023/01/14 13:57:36;;;;;;;;;;;;;;;9.59;64.19;97697.91;4847955;29;19924;-65
2023/01/14 14:00:06;;;;;;;;;;;;;;;9.38;64.49;97687.22;4850464;29;19958;-65
2023/01/14 14:02:41;;;;;;;;;;;;;;;9.33;64.87;97696.34;4846446;29;20367;-65
2023/01/14 14:05:43;;;;;;;;;;;;;;;9.16;65.18;97697.53;4854892;29;19920;-63
2023/01/14 14:08:08;;;;;;;;;;;;;;;9.16;65.55;97689.69;4828920;29;19950;-65
2023/01/14 14:10:39;;;;;;;;;;;;;;;9.17;65.42;97683.50;4832210;29;19921;-66
2023/01/14 14:16:25;;;;;;;;;;;;;;;9.11;65.59;97661.22;4836847;29;19939;-65
2023/01/14 14:18:52;;;;;;;;;;;;;;;9.06;65.83;97660.72;4833913;29;19924;-65
2023/01/14 14:21:18;;;;;;;;;;;;;;;9.02;65.91;97654.88;4822254;29;19973;-65
2023/01/14 14:23:50;;;;;;;;;;;;;;;9.00;66.01;97655.94;4821997;29;19921;-64
2023/01/14 14:26:21;;;;;;;;;;;;;;;8.97;66.34;97638.66;4824263;29;19933;-64
2023/01/14 14:28:48;;;;;;;;;;;;;;;8.95;66.07;97637.13;4815525;29;20249;-65
2023/01/14 14:31:16;;;;;;;;;;;;;;;8.92;65.70;97646.00;4818716;29;19944;-65
2023/01/14 14:33:42;;;;;;;;;;;;;;;8.84;65.26;97637.84;4821044;29;19921;-65
2023/01/14 14:36:17;;;;;;;;;;;;;;;8.77;65.10;97637.47;4821906;29;19920;-65
2023/01/14 14:38:44;;;;;;;;;;;;;;;8.72;65.22;97634.34;4818418;29;19964;-65
2023/01/14 14:41:13;;;;;;;;;;;;;;;8.65;65.57;97627.88;4825755;29;19928;-66
2023/01/14 14:43:39;;;;;;;;;;;;;;;8.63;66.11;97614.06;4852702;29;19920;-65
2023/01/14 14:46:07;;;;;;;;;;;;;;;8.63;65.77;97600.97;4835841;29;20440;-66
2023/01/14 14:48:33;;;;;;;;;;;;;;;8.62;66.28;97586.25;4858221;29;20019;-65
2023/01/14 14:50:58;;;;;;;;;;;;;;;8.59;66.27;97586.47;4850286;29;20002;-65
2023/01/14 14:53:25;;;;;;;;;;;;;;;8.56;65.53;97584.06;4852728;29;19920;-65
2023/01/14 14:55:50;;;;;;;;;;;;;;;8.51;65.18;97583.56;4859532;29;19951;-64
2023/01/14 14:58:19;;;;;;;;;;;;;;;8.48;65.45;97583.78;4862027;29;20299;-64
2023/01/14 15:00:44;;;;;;;;;;;;;;;8.45;65.61;97586.59;4856058;29;19976;-65
2023/01/14 15:03:16;;;;;;;;;;;;;;;8.46;65.70;97590.88;4857186;29;20018;-65
2023/01/14 15:05:41;;;;;;;;;;;;;;;8.42;65.12;97595.47;4854206;29;19920;-65
2023/01/14 15:08:07;;;;;;;;;;;;;;;8.31;65.32;97583.13;4853709;29;19924;-63
2023/01/14 15:10:34;;;;;;;;;;;;;;;8.24;65.63;97581.06;4836379;29;19928;-65
2023/01/14 15:13:00;;;;;;;;;;;;;;;8.26;65.77;97566.13;4855614;29;20403;-65
2023/01/14 15:15:29;;;;;;;;;;;;;;;8.20;65.75;97564.75;4853052;29;19924;-65
2023/01/14 15:17:58;;;;;;;;;;;;;;;8.22;65.87;97562.03;4853751;29;19927;-65
2023/01/14 15:20:23;;;;;;;;;;;;;;;8.23;65.92;97548.03;4858145;29;19916;-64
2023/01/14 15:22:48;;;;;;;;;;;;;;;9.98;79.99;97541.38;4857384;29;20060;-64
2023/01/14 15:25:15;;;;;;;;;;;;;;;10.25;61.02;97540.19;4854593;29;20019;-63
2023/01/14 15:27:41;;;;;;;;;;;;;;;9.71;60.48;97526.81;4854635;29;19962;-63
2023/01/14 15:30:20;;;;;;;;;;;;;;;9.41;61.81;97550.88;4858071;29;19963;-63
2023/01/14 15:32:45;;;;;;;;;;;;;;;9.23;61.58;97566.16;4857058;29;19920;-63
2023/01/14 15:35:19;;;;;;;;;;;;;;;8.89;63.29;97566.94;4858066;29;19944;-63
2023/01/14 15:37:45;;;;;;;;;;;;;;;8.71;64.36;97569.09;4851934;29;19928;-65
2023/01/14 15:40:14;;;;;;;;;;;;;;;8.53;65.49;97561.63;4857522;29;19928;-63
2023/01/14 20:06:20;;;;;;;;;;;;;;;7.08;76.29;97245.44;5899576;24;19926;31
2023/01/14 20:08:45;;;;;;;;;;;;;;;7.09;76.81;97208.84;4842579;29;19928;-67
2023/01/14 20:11:11;;;;;;;;;;;;;;;7.09;77.39;97234.06;4843101;29;20020;-67
2023/01/14 20:13:36;;;;;;;;;;;;;;;7.23;76.59;97220.91;4834251;29;20012;-67
2023/01/14 20:16:02;;;;;;;;;;;;;;;7.19;77.20;97201.19;4834862;29;19920;-66
2023/01/14 20:18:27;;;;;;;;;;;;;;;7.15;77.09;97220.59;4816719;29;19932;-68
2023/01/14 20:20:57;;;;;;;;;;;;;;;7.27;76.30;97217.13;4829364;29;19978;-65
2023/01/14 20:23:22;;;;;;;;;;;;;;;7.27;76.81;97198.03;4814522;29;19921;-67
2023/01/14 20:25:47;;;;;;;;;;;;;;;7.30;76.51;97209.09;4831591;29;20391;-67
2023/01/14 20:28:15;;;;;;;;;;;;;;;7.28;77.22;97200.53;4834434;29;20342;-67
2023/01/14 20:30:40;;;;;;;;;;;;;;;7.28;77.07;97176.22;4841275;29;19921;-67
2023/01/14 20:33:06;;;;;;;;;;;;;;;7.24;77.90;97182.59;4818901;29;20528;-69
2023/01/14 20:35:32;;;;;;;;;;;;;;;7.26;77.23;97178.09;4841535;29;20420;-68
2023/01/14 20:37:58;;;;;;;;;;;;;;;7.22;76.93;97168.81;4825416;29;19928;-66
2023/01/14 20:40:23;;;;;;;;;;;;;;;7.27;76.29;97170.19;4841836;29;19924;-67
2023/01/14 20:42:49;;;;;;;;;;;;;;;7.36;76.29;97169.53;4822233;29;19925;-68
2023/01/14 20:45:14;;;;;;;;;;;;;;;7.37;76.43;97158.13;4821476;29;19918;-67
2023/01/14 20:50:23;;;;;;;;;;;;;;;7.29;77.82;97168.28;4836405;29;19931;-69
2023/01/14 20:52:48;;;;;;;;;;;;;;;7.26;77.60;97157.22;4840962;29;19921;-67
2023/01/14 20:55:13;;;;;;;;;;;;;;;7.27;78.01;97146.69;4808993;29;19924;-68
2023/01/14 20:57:39;;;;;;;;;;;;;;;7.30;78.44;97156.09;4832166;29;20389;-67
2023/01/14 21:00:04;;;;;;;;;;;;;;;7.34;78.32;97153.16;4842465;29;20392;-68
2023/01/14 21:02:29;;;;;;;;;;;;;;;7.37;78.52;97152.94;4809896;29;20389;-68
2023/01/14 21:04:55;;;;;;;;;;;;;;;7.30;79.50;97136.06;4835366;29;20305;-67
2023/01/14 21:07:20;;;;;;;;;;;;;;;7.35;79.06;97144.38;4832979;29;19925;-68
2023/01/14 21:09:48;;;;;;;;;;;;;;;7.34;79.04;97127.06;4834180;29;20424;-68
2023/01/14 21:12:13;;;;;;;;;;;;;;;7.30;78.73;97135.22;4828123;29;19920;-68
2023/01/14 21:22:58;;;;;;;;;;;;;;;7.40;77.39;97127.53;4826456;29;19928;-69
2023/01/14 21:25:27;;;;;;;;;;;;;;;7.47;76.52;97131.41;4824590;29;19921;-67
2023/01/14 21:27:53;;;;;;;;;;;;;;;7.38;76.90;97115.44;4817051;29;19928;-68
2023/01/14 21:30:18;;;;;;;;;;;;;;;7.38;75.96;97125.88;4825535;29;19921;-67
2023/01/14 21:32:43;;;;;;;;;;;;;;;7.36;75.83;97119.97;4825646;29;20300;-67
2023/01/14 21:35:10;;;;;;;;;;;;;;;7.31;76.98;97132.50;4824513;29;20396;-66
2023/01/14 21:37:35;;;;;;;;;;;;;;;7.26;76.49;97129.41;4822541;29;19920;-69
2023/01/14 21:40:01;;;;;;;;;;;;;;;7.39;75.95;97131.94;4834489;29;19931;-70
2023/01/14 21:45:10;;;;;;;;;;;;;;;7.36;76.39;97139.97;4841484;29;20500;-67
2023/01/14 21:47:35;;;;;;;;;;;;;;;7.33;76.03;97125.41;4821075;29;19921;-65
2023/01/14 21:50:01;;;;;;;;;;;;;;;7.32;76.76;97123.72;4830979;29;19920;-70
2023/01/14 21:52:26;;;;;;;;;;;;;;;7.29;76.68;97131.75;4840005;29;19928;-70
2023/01/14 21:54:51;;;;;;;;;;;;;;;7.33;76.53;97135.84;4832650;29;19925;-66
2023/01/14 21:57:16;;;;;;;;;;;;;;;7.32;76.66;97123.72;4839892;29;19980;-69
2023/01/14 21:59:42;;;;;;;;;;;;;;;7.39;76.17;97134.53;4821089;29;20019;-67
2023/01/14 22:02:16;;;;;;;;;;;;;;;7.37;76.73;97110.34;4824120;29;20381;-66
2023/01/14 22:04:41;;;;;;;;;;;;;;;7.38;76.40;97120.66;4839478;29;19928;-67
2023/01/14 22:07:08;;;;;;;;;;;;;;;7.41;77.20;97111.78;4826861;29;19921;-69
2023/01/14 22:09:33;;;;;;;;;;;;;;;7.43;76.70;97103.84;4820706;29;19920;-67
2023/01/14 22:11:58;;;;;;;;;;;;;;;7.53;76.41;97097.00;4838898;29;20410;-66
